Coahoma, MS (38617)

3:31 AM CDT on September 02, 2015 (GMT -0500)
Clarksdale | | Change Station
CLOSE
Current Station
Personal Weather Station
Location: Clarksdale, MS
Elevation: 164 ft
Nearby Weather Stations

Elev 164 ft 34.10 °N, 90.61 °W | Updated 1 second ago

Clear
Clear
74.7 °F
Feels Like 73 °F
N
0.0
Wind Variable Wind from NE
Gusts 0.0 mph

Today
High -- | Low -- °F
--% Chance of Precip.
Yesterday
High -- | Low -- °F
Precip. -- in
6:35 AM 7:27 PM
Waning Gibbous, 82% visible
Pressure 30.05 in
Visibility 10.0 miles
Clouds Clear
Heat Index 73 °F
Dew Point 72 °F
Humidity 91%
Rainfall 0.00 in
Snow Depth Not available.
UV 0 out of 12
Pollen 9.70 out of 12
Air Quality Not available.
Flu Activity Not available.
METAR KRNV 020615Z AUTO 10005KT 10SM CLR 25/23 A3005 RMK AO2 T02520231
Pressure 30.05 in
Visibility 10.0 miles
Clouds Clear
Heat Index 73 °F
Dew Point 72 °F
Humidity 91%
Rainfall 0.00 in
Snow Depth Not available.
UV 0 out of 12
Pollen 9.70 out of 12
Air Quality Not available.
Flu Activity Not available.
METAR KRNV 020615Z AUTO 10005KT 10SM CLR 25/23 A3005 RMK AO2 T02520231

10-Day Weather Forecast

×

Almanac

Astronomy

Sep. 02, 2015 Rise Set
Actual Time
Civil Twilight
Nautical Twilight
Astronomical Twilight
Moon
Length of Visible Light
Length of Day
Tomorrow will be .
, % of the Moon is Illuminated

Today's Extremes

State Highs State Lows

Community

WunderPhotos

Upload Photos

1,851,728 photos uploaded!

WunderBlogs® & News

Nearby

Air Quality

  Air Quality AQ Index Pollutant
Not available.

Snow Depth

Station Depth Elevation

Earthquake Activity

City Distance Mag. Time & Date
Minimum magnitude displayed is 2.5.

Coastal Water Temperatures

Place Temperature

Stations

Nearby Weather Stations

Station Location Temp. Windchill Dew Point Humidity Wind Precip. Elev Updated Type